createdAt,value
2022-08-23T02:19:18.015Z,70.07
2022-08-23T02:22:08.405Z,69.62
2022-08-23T02:24:39.135Z,69.34
2022-08-23T02:27:05.848Z,69.04
2022-08-23T02:29:44.402Z,68.94
2022-08-23T03:48:42.773Z,68.09
2022-08-23T03:51:09.413Z,68.11
2022-08-23T03:53:36.080Z,68.08
2022-08-23T03:56:02.969Z,68.08
2022-08-23T03:58:29.732Z,68.17
2022-08-23T08:53:47.364Z,57.47
2022-08-23T09:32:15.205Z,54.42
2022-08-23T09:34:43.168Z,54.33
2022-08-23T09:37:25.345Z,53.32
2022-08-23T09:40:16.443Z,52.75
2022-08-23T13:27:45.372Z,48.27
2022-08-23T15:23:40.951Z,52.82
2022-08-23T15:35:09.685Z,53.24
2022-08-23T16:39:11.699Z,55.52
2022-08-23T16:41:40.142Z,55.29
2022-08-23T16:44:07.590Z,55.00
2022-08-23T16:46:36.077Z,55.44
2022-08-23T16:49:03.259Z,55.07
2022-08-23T16:51:30.006Z,55.55
2022-08-23T17:45:53.524Z,60.66
2022-08-23T17:48:21.885Z,61.77
2022-08-23T17:50:48.948Z,62.28
2022-08-23T18:12:35.863Z,62.12
2022-08-23T18:51:18.153Z,66.92
2022-08-23T18:53:45.340Z,67.02
2022-08-23T18:56:12.034Z,66.62
2022-08-23T18:58:39.064Z,68.25
2022-08-23T19:01:21.151Z,67.31
2022-08-23T19:03:47.992Z,67.75
2022-08-23T19:06:17.095Z,68.37
2022-08-23T19:08:44.080Z,67.24
2022-08-23T19:16:37.375Z,66.91
2022-08-23T19:21:59.726Z,67.68
2022-08-23T19:25:06.033Z,68.92
2022-08-23T19:27:50.188Z,68.27
2022-08-23T19:30:24.975Z,68.55
2022-08-23T19:32:56.537Z,67.79
2022-08-23T19:35:32.825Z,68.00
2022-08-23T19:38:00.909Z,67.96
2022-08-23T19:40:38.384Z,68.27
2022-08-23T19:43:05.447Z,68.69
2022-08-23T19:45:32.672Z,68.06
2022-08-23T19:48:03.749Z,68.79
2022-08-23T19:50:30.474Z,67.53
2022-08-23T19:52:57.176Z,67.81
2022-08-23T19:55:28.587Z,67.99
2022-08-23T19:57:58.301Z,67.89
2022-08-23T20:00:26.295Z,67.74
2022-08-23T20:02:53.253Z,68.83
2022-08-23T20:05:20.886Z,68.58
2022-08-23T20:07:47.706Z,67.88
2022-08-23T20:10:16.535Z,68.05
2022-08-23T20:12:43.254Z,68.64
2022-08-23T20:15:11.727Z,68.33
2022-08-23T20:17:40.068Z,67.67
2022-08-23T20:20:09.974Z,67.74
2022-08-23T20:22:55.341Z,68.08
2022-08-23T20:25:22.312Z,67.70
2022-08-23T20:27:48.975Z,67.31
2022-08-23T20:30:15.752Z,66.92
2022-08-23T20:32:45.366Z,67.37
2022-08-23T20:35:12.251Z,67.93
2022-08-23T20:37:39.660Z,67.68
2022-08-23T20:40:10.263Z,68.19
2022-08-23T20:42:38.735Z,68.25
2022-08-23T20:45:07.285Z,67.68
2022-08-23T20:47:35.149Z,67.95
2022-08-23T20:50:04.689Z,68.01
2022-08-23T20:52:39.295Z,67.39
2022-08-23T20:55:10.663Z,67.37
2022-08-23T20:57:46.271Z,67.69
2022-08-23T21:00:13.243Z,67.18
2022-08-23T21:02:39.944Z,68.14
2022-08-23T21:05:16.297Z,67.20
2022-08-23T21:07:42.960Z,66.90
2022-08-23T21:10:10.273Z,66.89
2022-08-23T21:12:38.970Z,67.58
2022-08-23T21:15:10.661Z,67.19
2022-08-23T21:17:37.643Z,68.12
2022-08-23T21:20:05.412Z,67.85
2022-08-23T21:22:34.753Z,67.23
2022-08-23T21:25:02.137Z,67.41
2022-08-23T21:27:29.071Z,67.77
2022-08-23T21:29:56.036Z,67.40
2022-08-23T21:32:22.728Z,68.30
2022-08-23T21:34:49.976Z,68.09
2022-08-23T21:37:16.663Z,68.00
